Time;durP1;ratioP1;P1;durP2;ratioP2;P2;SDS_P1;SDS_P2;PMS_P1;PMS_P2;Temp;Humidity;BMP_temperature;BMP_pressure;BME280_temperature;BME280_humidity;BME280_pressure;Samples;Min_cycle;Max_cycle;Signal;HPM_P1;HPM_P2
2021/08/01 00:00:00;;;;;;;9.85;6.90;;;;;;;22.16;93.03;97148.66;5053502;28;20145;-78
2021/08/01 00:02:26;;;;;;;8.63;5.75;;;;;;;22.23;93.37;97148.69;5052153;28;20116;-78
2021/08/01 00:04:52;;;;;;;8.60;5.50;;;;;;;22.24;93.08;97156.63;5051772;28;20021;-80
2021/08/01 00:07:17;;;;;;;8.18;5.78;;;;;;;22.29;91.76;97142.34;5053432;28;20025;-79
2021/08/01 00:09:43;;;;;;;10.77;6.03;;;;;;;22.33;91.45;97143.13;5051633;28;20027;-79
2021/08/01 00:12:08;;;;;;;10.65;6.18;;;;;;;22.33;90.89;97136.78;5052009;28;20029;-79
2021/08/01 00:14:34;;;;;;;10.00;5.90;;;;;;;22.39;90.39;97135.22;5052284;28;20061;-79
2021/08/01 00:17:00;;;;;;;8.77;5.65;;;;;;;22.33;91.15;97131.22;5052334;28;20029;-80
2021/08/01 00:19:26;;;;;;;7.50;6.22;;;;;;;22.44;91.24;97145.97;5053465;28;20076;-80
2021/08/01 00:21:51;;;;;;;9.23;6.82;;;;;;;22.40;90.96;97150.72;5051904;28;20017;-79
2021/08/01 00:24:17;;;;;;;7.15;5.80;;;;;;;22.34;91.57;97153.09;5051629;28;20041;-79
2021/08/01 00:26:42;;;;;;;7.65;5.53;;;;;;;22.42;91.20;97154.75;5051704;28;20533;-79
2021/08/01 00:29:07;;;;;;;9.45;6.18;;;;;;;22.34;91.07;97155.91;5051495;28;20090;-81
2021/08/01 00:31:33;;;;;;;8.15;6.10;;;;;;;22.23;92.25;97145.91;5052855;28;20045;-81
2021/08/01 00:33:59;;;;;;;8.90;6.65;;;;;;;22.16;92.66;97131.94;5051976;28;20095;-79
2021/08/01 00:36:25;;;;;;;6.53;5.47;;;;;;;22.27;92.33;97139.13;5051887;28;20362;-80
2021/08/01 00:38:50;;;;;;;8.43;5.70;;;;;;;22.21;92.75;97139.94;5052929;28;20025;-78
2021/08/01 00:41:16;;;;;;;8.38;7.00;;;;;;;22.07;93.64;97139.84;5052991;28;20033;-81
2021/08/01 00:43:41;;;;;;;10.77;6.28;;;;;;;22.00;94.72;97121.09;5051221;28;20544;-78
2021/08/01 00:46:08;;;;;;;7.75;6.68;;;;;;;21.91;95.27;97126.22;5051493;28;20021;-78
2021/08/01 00:48:34;;;;;;;7.72;6.10;;;;;;;21.99;95.31;97133.44;5051798;28;20445;-79
2021/08/01 00:50:59;;;;;;;8.60;7.07;;;;;;;21.96;94.58;97125.84;5052980;28;20111;-78
2021/08/01 00:53:26;;;;;;;9.35;7.72;;;;;;;21.99;94.76;97130.66;5051311;28;20125;-79
2021/08/01 00:55:52;;;;;;;11.02;7.00;;;;;;;21.90;95.67;97119.06;5052835;28;20019;-79
2021/08/01 00:58:17;;;;;;;10.98;6.57;;;;;;;21.92;95.47;97110.34;5051037;28;20029;-83
2021/08/01 01:01:06;;;;;;;7.32;6.18;;;;;;;21.95;94.85;97107.56;5051247;28;20029;-79
2021/08/01 01:03:44;;;;;;;9.07;6.13;;;;;;;21.92;95.12;97113.91;5051356;28;20086;-79
2021/08/01 01:06:31;;;;;;;14.15;7.57;;;;;;;21.86;94.65;97098.75;5051896;28;20033;-79
2021/08/01 01:09:13;;;;;;;7.80;5.82;;;;;;;21.75;95.43;97101.44;5052518;28;20025;-78
2021/08/01 01:11:41;;;;;;;9.75;6.43;;;;;;;21.65;95.94;97096.63;5050908;28;20041;-78
2021/08/01 01:14:11;;;;;;;8.43;6.78;;;;;;;21.49;97.44;97092.56;5051370;28;20040;-78
2021/08/01 01:16:42;;;;;;;7.50;6.43;;;;;;;21.50;97.50;97099.69;5052688;28;20110;-79
2021/08/01 01:19:11;;;;;;;8.15;6.30;;;;;;;21.43;97.81;97091.28;5051998;28;20063;-78
2021/08/01 01:21:46;;;;;;;8.45;6.10;;;;;;;21.50;97.84;97088.56;5052438;28;20036;-78
2021/08/01 01:24:15;;;;;;;9.35;6.57;;;;;;;21.38;98.13;97080.53;5050818;28;20120;-78
2021/08/01 01:27:13;;;;;;;7.25;6.35;;;;;;;21.33;99.03;97082.50;5053525;28;20033;-78
2021/08/01 01:29:59;;;;;;;11.82;6.88;;;;;;;21.18;99.25;97069.66;5049862;28;20033;-78
2021/08/01 01:32:34;;;;;;;10.57;6.93;;;;;;;21.31;98.50;97068.16;5050953;28;20037;-78
2021/08/01 01:35:11;;;;;;;10.82;6.53;;;;;;;21.42;97.60;97071.03;5050695;28;20049;-78
2021/08/01 01:37:37;;;;;;;9.73;6.35;;;;;;;21.52;96.68;97059.16;5050493;28;20033;-78
2021/08/01 01:40:05;;;;;;;10.93;6.43;;;;;;;21.44;97.36;97070.63;5050753;28;20021;-79
2021/08/01 01:42:32;;;;;;;7.35;5.93;;;;;;;21.38;98.06;97064.66;5050240;28;20473;-78
2021/08/01 01:45:00;;;;;;;6.63;5.47;;;;;;;21.24;98.51;97064.53;5050122;28;20032;-80
2021/08/01 01:47:26;;;;;;;11.18;5.88;;;;;;;21.31;98.21;97065.38;5050372;28;20036;-78
2021/08/01 01:49:57;;;;;;;6.95;5.97;;;;;;;21.38;98.18;97063.84;5050124;28;20120;-79
2021/08/01 01:52:24;;;;;;;9.48;6.03;;;;;;;21.31;97.84;97053.47;5050221;28;20024;-79
2021/08/01 01:54:50;;;;;;;8.00;5.93;;;;;;;21.27;97.84;97042.31;5050340;28;20032;-79
2021/08/01 01:57:16;;;;;;;8.07;5.25;;;;;;;21.26;98.25;97043.50;5051585;28;20129;-79
2021/08/01 01:59:41;;;;;;;13.60;6.72;;;;;;;21.16;98.73;97018.38;5049841;28;20434;-79
2021/08/01 02:02:07;;;;;;;8.70;6.32;;;;;;;21.11;99.49;97033.44;5050361;28;20031;-81
2021/08/01 02:04:33;;;;;;;10.50;5.50;;;;;;;21.04;99.68;97022.25;5051541;28;20036;-80
2021/08/01 02:06:59;;;;;;;9.25;6.03;;;;;;;21.02;100.00;97016.25;5051108;28;20025;-80
2021/08/01 02:09:57;;;;;;;20.10;7.07;;;;;;;20.95;100.00;97027.34;5051710;28;20025;-80
2021/08/01 02:12:41;;;;;;;8.23;6.25;;;;;;;21.06;100.00;97010.72;5044168;28;20045;-78
2021/08/01 02:15:12;;;;;;;9.68;6.88;;;;;;;20.94;100.00;96999.91;5051656;28;20567;-79
2021/08/01 02:17:41;;;;;;;7.60;6.15;;;;;;;20.93;100.00;96993.56;5050491;28;20021;-79
2021/08/01 02:20:08;;;;;;;9.00;6.70;;;;;;;21.14;99.68;96999.31;5051043;28;20511;-79
2021/08/01 02:22:34;;;;;;;8.48;6.57;;;;;;;21.16;98.81;97002.50;5049041;28;20045;-79
2021/08/01 02:25:01;;;;;;;10.02;7.70;;;;;;;21.05;99.71;96995.25;5050308;28;20450;-79
2021/08/01 02:27:31;;;;;;;7.78;6.63;;;;;;;21.17;98.57;96997.75;5050764;28;20564;-79
2021/08/01 02:29:59;;;;;;;9.82;6.40;;;;;;;21.08;99.54;97000.03;5050845;28;20068;-78
2021/08/01 02:32:24;;;;;;;6.63;5.60;;;;;;;21.22;98.55;97009.28;5049134;28;20037;-78
2021/08/01 02:34:50;;;;;;;7.68;6.15;;;;;;;21.15;99.04;97006.47;5049210;28;20389;-79
2021/08/01 02:37:17;;;;;;;10.20;6.20;;;;;;;21.05;98.92;96990.47;5049560;28;20115;-78
2021/08/01 02:39:44;;;;;;;8.70;6.63;;;;;;;21.05;99.26;96998.03;5049714;28;20060;-78
2021/08/01 02:42:11;;;;;;;6.40;5.60;;;;;;;21.05;99.04;96995.25;5053526;28;20021;-78
2021/08/01 02:44:37;;;;;;;9.75;6.45;;;;;;;21.00;99.71;96990.84;5050468;28;20033;-78
2021/08/01 02:47:06;;;;;;;10.10;6.28;;;;;;;21.19;98.41;96996.16;5049101;28;20025;-79
2021/08/01 02:49:36;;;;;;;9.07;5.03;;;;;;;21.42;97.11;97000.66;5050334;28;20040;-79
2021/08/01 02:52:04;;;;;;;9.00;5.95;;;;;;;21.28;97.75;96993.81;5048932;28;20040;-80
2021/08/01 02:54:31;;;;;;;6.65;5.78;;;;;;;21.25;98.42;96993.81;5050685;28;20059;-79
2021/08/01 02:57:01;;;;;;;6.15;5.43;;;;;;;21.09;99.98;96984.94;5050760;28;20029;-78
2021/08/01 02:59:30;;;;;;;8.50;5.78;;;;;;;21.10;100.00;96992.94;5050170;28;20044;-80
2021/08/01 03:01:56;;;;;;;6.95;6.05;;;;;;;20.93;100.00;96995.53;5049172;28;20029;-81
2021/08/01 03:04:24;;;;;;;8.60;5.55;;;;;;;20.89;100.00;96992.75;5050630;28;20103;-80
2021/08/01 03:06:51;;;;;;;7.80;5.40;;;;;;;20.97;100.00;96994.38;5050505;28;20382;-79
2021/08/01 03:09:17;;;;;;;7.60;5.38;;;;;;;20.96;100.00;96998.34;5048590;28;20035;-79
2021/08/01 03:11:42;;;;;;;6.65;5.38;;;;;;;21.06;100.00;96983.72;5050500;28;20032;-79
2021/08/01 03:14:08;;;;;;;9.13;6.00;;;;;;;20.95;100.00;96982.88;5049133;28;20086;-78
2021/08/01 03:16:33;;;;;;;5.85;5.03;;;;;;;20.91;100.00;96984.81;5049082;28;20036;-78
2021/08/01 03:18:59;;;;;;;9.35;7.50;;;;;;;20.82;100.00;96981.56;5048695;28;20080;-79
2021/08/01 03:21:24;;;;;;;6.72;5.70;;;;;;;21.06;100.00;96985.69;5050548;28;20029;-78
2021/08/01 03:23:51;;;;;;;6.50;5.55;;;;;;;21.13;100.00;97003.28;5048660;28;20036;-81
2021/08/01 03:26:16;;;;;;;9.15;5.70;;;;;;;21.15;99.84;96997.31;5048906;28;20433;-79
2021/08/01 03:28:42;;;;;;;7.15;5.28;;;;;;;21.06;100.00;96999.59;5050045;28;20045;-79
2021/08/01 03:31:07;;;;;;;7.32;5.28;;;;;;;21.03;100.00;97000.38;5053082;28;20045;-78
2021/08/01 03:33:33;;;;;;;8.60;6.07;;;;;;;20.95;100.00;96996.78;5052895;28;20036;-79
2021/08/01 03:35:58;;;;;;;10.98;5.30;;;;;;;20.88;100.00;96984.78;5053856;28;20060;-78
2021/08/01 03:38:24;;;;;;;8.48;5.78;;;;;;;21.01;100.00;96984.09;5052693;28;20025;-78
2021/08/01 03:40:50;;;;;;;9.77;5.60;;;;;;;20.96;100.00;96991.97;5052540;28;20029;-79
2021/08/01 03:43:16;;;;;;;6.65;5.05;;;;;;;20.83;100.00;96980.41;5052818;28;20021;-78
2021/08/01 03:45:42;;;;;;;7.38;5.78;;;;;;;20.98;99.48;96995.19;5054137;28;20021;-79
2021/08/01 03:48:07;;;;;;;7.53;5.18;;;;;;;20.96;99.52;97009.47;5053726;28;20416;-79
2021/08/01 03:50:33;;;;;;;4.53;4.13;;;;;;;20.72;100.00;97010.88;5052838;28;20397;-79
2021/08/01 03:52:58;;;;;;;5.68;5.00;;;;;;;20.86;99.59;97020.53;5052639;28;20024;-78
2021/08/01 03:55:23;;;;;;;5.88;4.78;;;;;;;20.74;100.00;97029.94;5052588;28;20090;-80
2021/08/01 03:57:49;;;;;;;10.05;5.30;;;;;;;20.70;100.00;97026.34;5053923;28;20032;-79
2021/08/01 04:00:14;;;;;;;7.05;5.47;;;;;;;20.66;100.00;97011.63;5052326;28;20028;-79
2021/08/01 04:02:40;;;;;;;7.35;5.45;;;;;;;20.70;100.00;97018.03;5053846;28;20025;-79
2021/08/01 04:05:08;;;;;;;6.10;5.03;;;;;;;20.68;100.00;97015.59;5053914;28;20025;-81
2021/08/01 04:07:33;;;;;;;5.93;5.32;;;;;;;20.82;99.24;97009.38;5053835;28;20397;-79
2021/08/01 04:09:59;;;;;;;7.10;5.45;;;;;;;20.67;100.00;97018.78;5051819;28;20035;-79
2021/08/01 04:12:25;;;;;;;7.05;5.13;;;;;;;20.52;100.00;97006.72;5052360;28;20037;-79
2021/08/01 04:14:51;;;;;;;7.53;5.60;;;;;;;20.46;100.00;97008.25;5052392;28;20033;-79
2021/08/01 04:17:19;;;;;;;7.47;5.35;;;;;;;20.43;100.00;97020.13;5052480;28;20017;-81
2021/08/01 04:19:46;;;;;;;6.32;5.22;;;;;;;20.55;100.00;97013.53;5052831;28;20044;-81
2021/08/01 04:22:14;;;;;;;5.95;5.35;;;;;;;20.63;100.00;96967.91;5052136;28;20114;-80
2021/08/01 04:24:40;;;;;;;14.25;5.45;;;;;;;20.54;100.00;96948.00;5053716;28;20025;-81
2021/08/01 04:27:05;;;;;;;8.88;5.00;;;;;;;20.66;100.00;96967.16;5051931;28;20021;-81
2021/08/01 04:29:32;;;;;;;6.07;5.38;;;;;;;20.64;100.00;96986.97;5051850;28;20025;-80
2021/08/01 04:31:58;;;;;;;7.40;5.78;;;;;;;20.80;100.00;96990.28;5054402;28;20136;-80
2021/08/01 04:34:23;;;;;;;6.47;4.93;;;;;;;20.75;100.00;96982.31;5052188;28;20120;-80
2021/08/01 04:36:49;;;;;;;7.75;5.65;;;;;;;20.66;100.00;96967.16;5053010;28;20473;-79
2021/08/01 04:39:14;;;;;;;7.53;5.10;;;;;;;20.80;100.00;96984.72;5051083;28;20028;-79
2021/08/01 04:41:40;;;;;;;8.82;5.60;;;;;;;20.78;100.00;96970.44;5052335;28;20028;-78
2021/08/01 04:44:06;;;;;;;6.60;5.88;;;;;;;20.90;100.00;96966.53;5051539;28;20377;-79
2021/08/01 04:46:31;;;;;;;6.38;5.70;;;;;;;21.09;100.00;96963.50;5051306;28;20025;-78
2021/08/01 04:48:57;;;;;;;8.23;6.03;;;;;;;20.99;100.00;96941.19;5051220;28;20508;-79
2021/08/01 04:51:22;;;;;;;6.70;5.38;;;;;;;21.07;100.00;96954.72;5051187;28;20031;-79
2021/08/01 04:53:48;;;;;;;7.15;6.45;;;;;;;21.10;100.00;96954.00;5052794;28;20457;-79
2021/08/01 04:56:13;;;;;;;6.97;5.85;;;;;;;21.16;100.00;96960.78;5051397;28;20152;-79
2021/08/01 04:58:38;;;;;;;7.93;5.40;;;;;;;21.41;99.30;96968.44;5052359;28;20032;-78
2021/08/01 05:01:14;;;;;;;6.07;5.25;;;;;;;21.39;100.00;96981.97;5052599;28;20036;-78
2021/08/01 05:03:41;;;;;;;10.73;6.97;;;;;;;21.54;99.32;96973.28;5051569;28;20033;-81
2021/08/01 05:06:08;;;;;;;12.20;5.57;;;;;;;21.49;98.66;96975.66;5052116;28;20110;-78
2021/08/01 05:08:34;;;;;;;10.13;6.20;;;;;;;21.41;99.99;96929.50;5052773;28;20033;-78
2021/08/01 05:10:59;;;;;;;8.82;5.55;;;;;;;21.28;100.00;96890.88;5052612;28;20064;-80
2021/08/01 05:13:26;;;;;;;9.02;6.68;;;;;;;21.37;100.00;96907.22;5051207;28;20091;-80
2021/08/01 05:15:51;;;;;;;7.43;6.18;;;;;;;21.38;100.00;96931.06;5052393;28;20024;-79
2021/08/01 05:18:17;;;;;;;10.50;5.05;;;;;;;21.44;100.00;96935.06;5050931;28;20377;-79
2021/08/01 05:20:43;;;;;;;7.78;5.93;;;;;;;21.51;100.00;96956.56;5050270;28;20540;-79
2021/08/01 05:23:09;;;;;;;8.23;6.22;;;;;;;21.61;100.00;96947.47;5050766;28;20029;-79
2021/08/01 05:25:35;;;;;;;10.52;6.60;;;;;;;21.63;100.00;96947.88;5051951;28;20029;-79
2021/08/01 05:28:00;;;;;;;15.57;7.70;;;;;;;21.80;100.00;96947.16;5050377;28;20362;-80
2021/08/01 05:30:26;;;;;;;7.80;6.25;;;;;;;21.93;100.00;96940.03;5050348;28;20049;-78
2021/08/01 05:32:51;;;;;;;9.85;6.55;;;;;;;21.72;99.55;96906.53;5051855;28;20029;-78
2021/08/01 05:35:17;;;;;;;8.65;6.35;;;;;;;21.72;99.82;96900.97;5052146;28;20029;-79
2021/08/01 05:37:43;;;;;;;10.98;6.93;;;;;;;21.71;99.47;96902.16;5050582;28;20025;-79
2021/08/01 05:40:11;;;;;;;7.43;6.28;;;;;;;21.84;98.97;96911.72;5051981;28;20099;-79
2021/08/01 05:42:39;;;;;;;9.48;6.30;;;;;;;21.92;96.55;96921.75;5051828;28;20013;-78
2021/08/01 05:45:06;;;;;;;9.10;6.68;;;;;;;22.12;96.46;96922.16;5051763;28;20029;-79
2021/08/01 05:47:32;;;;;;;8.35;6.10;;;;;;;22.20;97.41;96921.78;5050336;28;20493;-79
2021/08/01 05:49:57;;;;;;;7.43;5.95;;;;;;;22.29;96.45;96913.03;5050449;28;20032;-78
2021/08/01 05:52:23;;;;;;;7.35;6.03;;;;;;;22.32;95.29;96912.22;5050280;28;20082;-79
2021/08/01 05:54:53;;;;;;;11.00;6.72;;;;;;;22.49;93.74;96919.78;5051715;28;20439;-80
2021/08/01 05:57:18;;;;;;;6.70;5.85;;;;;;;22.50;92.54;96929.75;5051489;28;20029;-78
2021/08/01 05:59:43;;;;;;;9.18;7.15;;;;;;;22.40;94.33;96945.28;5050978;28;20023;-79
2021/08/01 06:02:11;;;;;;;9.40;6.20;;;;;;;22.42;92.27;96928.97;5051453;28;20061;-79
2021/08/01 06:04:36;;;;;;;10.43;6.47;;;;;;;22.25;93.15;96913.03;5050087;28;20021;-78
2021/08/01 06:07:02;;;;;;;7.93;6.20;;;;;;;22.16;93.95;96912.63;5051146;28;20020;-79
2021/08/01 06:09:27;;;;;;;9.43;7.20;;;;;;;22.31;92.39;96903.06;5051556;28;20033;-78
2021/08/01 06:11:53;;;;;;;9.00;6.35;;;;;;;22.40;91.44;96913.81;5050113;28;20447;-78
2021/08/01 06:14:18;;;;;;;7.85;6.85;;;;;;;22.61;91.08;96932.53;5049857;28;20397;-79
2021/08/01 06:16:44;;;;;;;11.10;8.38;;;;;;;22.96;91.29;96912.22;5049930;28;20396;-78
2021/08/01 06:19:09;;;;;;;15.90;11.60;;;;;;;22.65;89.93;96897.06;5049891;28;20405;-79
2021/08/01 06:21:35;;;;;;;17.50;10.52;;;;;;;22.56;90.90;96883.53;5051871;28;20040;-80
2021/08/01 06:24:00;;;;;;;12.85;10.32;;;;;;;23.12;89.06;96902.19;5051752;28;20025;-78
2021/08/01 06:26:25;;;;;;;13.23;9.07;;;;;;;23.51;87.31;96912.47;5051104;28;20031;-78
2021/08/01 06:28:51;;;;;;;10.85;7.97;;;;;;;24.03;84.18;96919.75;5051281;28;20037;-78
2021/08/01 06:31:16;;;;;;;7.85;6.82;;;;;;;24.20;83.19;96913.28;5049927;28;20123;-78
2021/08/01 06:33:43;;;;;;;6.60;5.63;;;;;;;23.98;80.41;96906.22;5049532;28;20042;-78
2021/08/01 06:36:14;;;;;;;9.60;6.15;;;;;;;23.65;80.65;96901.25;5050857;28;20028;-78
2021/08/01 06:38:40;;;;;;;8.07;5.32;;;;;;;23.73;81.18;96913.94;5049624;28;20147;-78
2021/08/01 06:41:07;;;;;;;5.65;4.80;;;;;;;24.10;79.17;96914.13;5049566;28;20029;-78
2021/08/01 06:43:33;;;;;;;7.18;4.88;;;;;;;24.16;78.70;96912.50;5050947;28;20092;-78
2021/08/01 06:45:59;;;;;;;6.75;5.10;;;;;;;24.57;78.39;96929.38;5049894;28;20170;-78
2021/08/01 06:48:24;;;;;;;6.00;4.50;;;;;;;25.05;74.91;96918.19;5048998;28;20029;-77
2021/08/01 06:50:50;;;;;;;7.40;4.80;;;;;;;25.02;73.54;96911.41;5050836;28;20025;-77
2021/08/01 06:53:16;;;;;;;5.03;4.07;;;;;;;25.39;72.35;96910.59;5051219;28;20066;-77
2021/08/01 06:55:42;;;;;;;5.55;4.07;;;;;;;25.01;71.88;96897.81;5049607;28;20025;-78
2021/08/01 06:58:07;;;;;;;5.07;4.57;;;;;;;24.42;75.30;96900.75;5050627;28;20504;-78
2021/08/01 07:00:33;;;;;;;9.75;7.60;;;;;;;24.90;74.71;96922.34;5050590;28;20053;-78
2021/08/01 07:03:01;;;;;;;9.02;6.00;;;;;;;25.62;70.58;96923.16;5048288;28;20059;-78
2021/08/01 07:05:28;;;;;;;29.00;25.25;;;;;;;25.74;69.22;96923.41;5051061;28;20025;-77
2021/08/01 07:07:55;;;;;;;4.28;3.88;;;;;;;25.37;70.92;96946.59;5050612;28;20136;-78
2021/08/01 07:10:21;;;;;;;5.65;3.85;;;;;;;25.56;70.50;96939.66;5049381;28;20473;-78
2021/08/01 07:12:47;;;;;;;6.63;4.32;;;;;;;25.49;70.15;96959.34;5050743;28;20393;-77
2021/08/01 07:15:14;;;;;;;40.95;33.58;;;;;;;25.47;69.93;96956.91;5050784;28;20020;-78
2021/08/01 07:17:40;;;;;;;6.38;5.13;;;;;;;25.29;70.96;96945.09;5049328;28;20477;-77
2021/08/01 07:20:08;;;;;;;4.47;3.70;;;;;;;25.07;71.89;96934.53;5049367;28;20079;-77
2021/08/01 07:22:34;;;;;;;5.97;4.10;;;;;;;25.28;71.17;96923.91;5051150;28;20021;-77
2021/08/01 07:24:59;;;;;;;22.63;17.27;;;;;;;25.60;71.32;96914.38;5049190;28;20543;-77
2021/08/01 07:27:25;;;;;;;11.65;9.27;;;;;;;25.60;70.09;96908.75;5050912;28;20031;-78
2021/08/01 07:29:51;;;;;;;22.15;16.42;;;;;;;25.46;70.66;96915.31;5049802;28;20108;-77
2021/08/01 07:32:16;;;;;;;12.93;8.98;;;;;;;25.93;69.02;96905.13;5050503;28;20563;-78
2021/08/01 07:34:42;;;;;;;9.13;6.65;;;;;;;25.55;69.71;96896.03;5049422;28;20029;-78
2021/08/01 07:37:07;;;;;;;8.02;3.92;;;;;;;25.89;68.72;96899.56;5049539;28;20040;-78
2021/08/01 07:39:33;;;;;;;5.05;3.63;;;;;;;26.27;67.08;96891.81;5050606;28;20036;-78
2021/08/01 07:41:58;;;;;;;5.65;3.75;;;;;;;26.28;66.03;96913.03;5050600;28;20060;-78
2021/08/01 07:44:26;;;;;;;5.45;3.92;;;;;;;26.22;65.83;96895.09;5050853;28;20045;-79
2021/08/01 07:46:51;;;;;;;5.10;3.67;;;;;;;25.72;65.68;96883.00;5050817;28;20040;-79
2021/08/01 07:49:16;;;;;;;4.88;4.00;;;;;;;25.48;68.58;96884.88;5048645;28;20021;-79
2021/08/01 07:51:42;;;;;;;4.38;3.95;;;;;;;25.39;66.92;96898.59;5050279;28;20519;-78
2021/08/01 07:54:07;;;;;;;8.52;3.42;;;;;;;25.90;66.70;96912.38;5050699;28;20032;-79
2021/08/01 07:56:33;;;;;;;7.80;3.95;;;;;;;25.45;69.27;96896.91;5050171;28;20036;-78
2021/08/01 07:58:58;;;;;;;5.28;3.92;;;;;;;25.49;68.72;96909.72;5048906;28;20120;-79
2021/08/01 08:01:25;;;;;;;7.80;3.60;;;;;;;25.27;69.72;96905.53;5050251;28;20036;-78
2021/08/01 08:03:50;;;;;;;5.53;3.85;;;;;;;24.78;70.41;96880.81;5048442;28;20124;-79
2021/08/01 08:06:15;;;;;;;4.40;3.53;;;;;;;24.85;71.39;96876.00;5048746;28;20025;-80
2021/08/01 08:08:41;;;;;;;5.45;3.97;;;;;;;24.94;71.61;96889.50;5049084;28;20457;-80
2021/08/01 08:11:06;;;;;;;5.05;4.55;;;;;;;25.14;71.91;96901.69;5048926;28;20460;-79
2021/08/01 08:13:32;;;;;;;8.80;3.92;;;;;;;24.94;72.46;96903.47;5052791;28;20025;-81
2021/08/01 08:15:57;;;;;;;4.72;3.78;;;;;;;25.16;72.04;96896.44;5052832;28;20029;-78
2021/08/01 08:18:23;;;;;;;6.53;3.63;;;;;;;25.51;70.63;96887.66;5054915;28;20064;-79
2021/08/01 08:20:49;;;;;;;9.48;3.78;;;;;;;27.10;64.57;96892.81;5056384;28;20505;-79
2021/08/01 08:23:15;;;;;;;8.27;4.10;;;;;;;27.82;61.44;96881.72;5057840;28;20067;-78
2021/08/01 08:25:42;;;;;;;6.32;4.22;;;;;;;28.54;58.08;96888.88;5055270;28;20025;-78
2021/08/01 08:28:07;;;;;;;6.65;3.78;;;;;;;30.57;52.13;96879.91;5053226;28;20972;-77
2021/08/01 08:30:33;;;;;;;5.63;3.63;;;;;;;30.15;52.17;96881.22;5051549;28;20053;-77
2021/08/01 08:32:58;;;;;;;8.05;3.97;;;;;;;29.86;53.44;96870.03;5053416;28;20111;-77
2021/08/01 08:35:23;;;;;;;11.75;4.05;;;;;;;29.07;55.84;96861.41;5051377;28;20055;-77
2021/08/01 08:37:52;;;;;;;9.90;5.07;;;;;;;28.81;56.80;96856.88;5052883;28;20446;-75
2021/08/01 08:40:20;;;;;;;7.30;3.92;;;;;;;28.42;57.61;96864.28;5053497;28;20029;-77
2021/08/01 08:42:47;;;;;;;6.55;4.63;;;;;;;28.56;58.06;96847.03;5052013;28;20115;-77
2021/08/01 08:45:16;;;;;;;8.68;4.50;;;;;;;29.02;56.01;96839.41;5051314;28;20040;-77
2021/08/01 08:47:46;;;;;;;6.40;4.28;;;;;;;28.60;55.68;96830.06;5053252;28;20090;-77
2021/08/01 08:50:14;;;;;;;9.45;4.45;;;;;;;27.36;60.04;96818.84;5053085;28;20028;-77
2021/08/01 08:52:42;;;;;;;11.48;4.50;;;;;;;27.19;62.86;96822.03;5051558;28;20016;-78
2021/08/01 08:55:08;;;;;;;6.75;4.65;;;;;;;27.21;62.54;96806.34;5052590;28;20028;-79
2021/08/01 08:57:38;;;;;;;14.30;4.95;;;;;;;27.53;63.50;96794.44;5052674;28;20035;-77
2021/08/01 09:00:06;;;;;;;7.30;5.00;;;;;;;28.18;63.17;96792.53;5052536;28;20037;-78
2021/08/01 09:02:34;;;;;;;6.70;4.38;;;;;;;28.67;61.62;96765.94;5051294;28;20537;-78
2021/08/01 09:05:00;;;;;;;8.35;4.25;;;;;;;28.44;62.32;96748.47;5051557;28;20381;-78
2021/08/01 09:07:26;;;;;;;9.93;4.38;;;;;;;29.02;57.33;96766.97;5051839;28;20075;-78
2021/08/01 09:09:53;;;;;;;5.50;4.35;;;;;;;28.10;60.76;96775.03;5051729;28;20037;-78
2021/08/01 09:12:19;;;;;;;13.95;9.73;;;;;;;27.00;66.76;96762.63;5053250;28;20105;-79
2021/08/01 09:14:45;;;;;;;7.13;4.32;;;;;;;26.54;66.79;96748.69;5052963;28;20033;-79
2021/08/01 09:17:32;;;;;;;7.65;4.63;;;;;;;26.24;69.26;96741.25;5050880;28;20025;-78
2021/08/01 09:20:11;;;;;;;14.48;6.13;;;;;;;26.55;70.06;96762.31;5052831;28;20029;-79
2021/08/01 09:22:37;;;;;;;7.55;5.70;;;;;;;26.31;71.00;96765.56;5051742;28;20041;-78
2021/08/01 09:25:17;;;;;;;10.48;6.45;;;;;;;26.18;71.52;96754.16;5052558;28;20493;-78
2021/08/01 09:27:43;;;;;;;7.18;5.53;;;;;;;25.98;71.68;96758.88;5050192;28;20440;-78
2021/08/01 09:30:09;;;;;;;7.70;4.93;;;;;;;25.67;74.01;96757.38;5050658;28;20033;-79
2021/08/01 09:32:50;;;;;;;12.32;5.05;;;;;;;25.54;73.58;96755.16;5051676;28;20033;-79
2021/08/01 09:35:20;;;;;;;11.65;5.10;;;;;;;25.49;73.96;96766.84;5052240;28;20024;-79
2021/08/01 09:37:57;;;;;;;10.50;5.22;;;;;;;25.01;81.06;96789.47;5052058;28;20107;-80
2021/08/01 09:40:30;;;;;;;9.02;5.47;;;;;;;24.23;84.62;96795.06;5050505;28;20436;-79
2021/08/01 09:43:08;;;;;;;7.28;4.88;;;;;;;24.14;86.05;96777.97;5051790;28;20037;-81
2021/08/01 09:45:34;;;;;;;6.03;4.50;;;;;;;23.91;84.77;96816.84;5052059;28;20040;-79
2021/08/01 09:48:17;;;;;;;12.18;4.22;;;;;;;23.61;85.91;96800.72;5051915;28;20024;-80
2021/08/01 09:51:03;;;;;;;13.15;5.55;;;;;;;23.58;86.75;96801.53;5051521;28;20486;-78
2021/08/01 09:53:29;;;;;;;11.80;4.43;;;;;;;23.36;83.69;96798.03;5051749;28;20055;-80
2021/08/01 09:56:12;;;;;;;11.25;4.10;;;;;;;23.61;78.50;96758.03;5051461;28;20397;-79
2021/08/01 09:58:39;;;;;;;10.70;4.65;;;;;;;23.72;77.31;96737.19;5050226;28;20178;-78
2021/08/01 10:01:06;;;;;;;7.15;4.07;;;;;;;24.02;76.02;96755.31;5050423;28;20112;-81
2021/08/01 10:03:34;;;;;;;10.80;3.75;;;;;;;24.19;74.01;96760.75;5052086;28;20397;-79
2021/08/01 10:06:17;;;;;;;9.90;3.88;;;;;;;24.17;73.90;96732.44;5051509;28;20013;-79
2021/08/01 10:08:50;;;;;;;7.75;2.88;;;;;;;24.07;73.47;96721.31;5051751;28;20044;-79
2021/08/01 10:11:17;;;;;;;11.85;4.68;;;;;;;23.72;75.55;96703.66;5049926;28;20055;-81
2021/08/01 10:13:46;;;;;;;6.63;3.63;;;;;;;23.85;75.92;96695.56;5051334;28;20025;-80
2021/08/01 10:16:12;;;;;;;11.57;4.15;;;;;;;24.09;75.04;96685.38;5050097;28;20393;-79
2021/08/01 10:18:40;;;;;;;8.85;3.80;;;;;;;24.37;74.44;96671.91;5050258;28;20036;-81
2021/08/01 10:21:07;;;;;;;10.07;4.25;;;;;;;26.10;69.66;96682.56;5050068;28;20032;-79
2021/08/01 10:23:36;;;;;;;12.75;3.60;;;;;;;26.28;65.45;96697.06;5051206;28;20033;-79
2021/08/01 10:26:04;;;;;;;9.20;4.13;;;;;;;26.70;63.83;96700.28;5050098;28;20492;-79
2021/08/01 10:28:32;;;;;;;8.70;3.70;;;;;;;25.30;70.38;96696.69;5049715;28;20512;-78
2021/08/01 10:31:08;;;;;;;7.55;3.38;;;;;;;24.87;73.75;96694.47;5049526;28;20049;-79
2021/08/01 10:33:44;;;;;;;5.82;3.90;;;;;;;24.49;75.55;96699.34;5049825;28;20488;-78
2021/08/01 10:36:10;;;;;;;;;;;;;;;24.45;76.18;96669.81;5049914;28;20087;-78
2021/08/01 10:38:38;;;;;;;11.52;4.30;;;;;;;24.35;76.23;96705.09;5049016;28;19950;-79
2021/08/01 10:41:07;;;;;;;10.25;3.97;;;;;;;24.66;75.21;96730.28;5049443;28;20504;-78
2021/08/01 10:43:35;;;;;;;6.30;4.32;;;;;;;25.01;75.28;96749.47;5050707;28;20543;-78
2021/08/01 10:46:00;;;;;;;5.50;3.67;;;;;;;25.08;73.28;96749.41;5051070;28;20067;-78
2021/08/01 10:48:29;;;;;;;7.00;4.05;;;;;;;25.07;72.94;96764.59;5049631;28;20028;-78
2021/08/01 10:50:56;;;;;;;11.05;3.95;;;;;;;24.93;73.24;96765.59;5049650;28;20033;-78
2021/08/01 10:53:26;;;;;;;10.27;3.67;;;;;;;24.95;73.91;96762.34;5049152;28;20060;-78
2021/08/01 10:56:12;;;;;;;10.60;3.90;;;;;;;24.92;74.82;96768.78;5049871;28;20109;-78
2021/08/01 10:58:38;;;;;;;14.93;3.97;;;;;;;25.03;74.63;96787.03;5039977;28;20521;-79
2021/08/01 11:01:08;;;;;;;9.18;5.07;;;;;;;24.86;75.56;96801.25;5051055;28;20493;-78
2021/08/01 11:03:35;;;;;;;5.97;3.58;;;;;;;24.47;77.79;96810.81;5049339;28;20048;-79
2021/08/01 11:06:02;;;;;;;10.63;4.38;;;;;;;23.86;82.35;96806.13;5049727;28;20055;-79
2021/08/01 11:08:28;;;;;;;10.15;4.15;;;;;;;23.35;85.08;96812.41;5049075;28;20029;-79
2021/08/01 11:11:17;;;;;;;7.35;4.10;;;;;;;22.73;90.32;96787.16;5049026;28;20056;-79
2021/08/01 11:13:49;;;;;;;8.75;5.30;;;;;;;22.22;91.83;96780.06;5037491;28;20060;-80
2021/08/01 11:16:40;;;;;;;9.05;4.93;;;;;;;22.37;94.03;96792.78;5049876;28;20025;-81
2021/08/01 11:19:33;;;;;;;5.28;3.83;;;;;;;22.62;93.10;96801.09;5043522;28;20037;-81
2021/08/01 11:21:59;;;;;;;11.27;4.45;;;;;;;22.52;93.26;96793.56;5042769;28;20072;-82
2021/08/01 11:24:24;;;;;;;7.30;3.85;;;;;;;22.30;92.65;96787.22;5050403;28;20052;-80
2021/08/01 11:27:11;;;;;;;8.15;4.15;;;;;;;22.42;95.19;96789.59;5050573;28;20040;-81
2021/08/01 11:29:56;;;;;;;7.18;4.65;;;;;;;22.53;94.57;96785.97;5050210;28;20424;-81
2021/08/01 11:32:22;;;;;;;13.43;7.85;;;;;;;22.75;91.21;96790.31;5053520;28;20057;-79